sensor_id;sensor_type;location;lat;lon;timestamp;P1;durP1;ratioP1;P2;durP2;ratioP2
27187;SDS011;14708;50.872;5.306;2024-03-23T00:52:34;3.05;;;1.60;;
27187;SDS011;14708;50.872;5.306;2024-03-23T00:55:01;1.92;;;1.75;;
27187;SDS011;14708;50.872;5.306;2024-03-23T00:57:27;1.75;;;1.48;;
27187;SDS011;14708;50.872;5.306;2024-03-23T01:03:16;2.42;;;1.90;;
27187;SDS011;14708;50.872;5.306;2024-03-23T01:05:41;4.63;;;1.98;;
27187;SDS011;14708;50.872;5.306;2024-03-23T01:08:07;3.53;;;2.20;;
27187;SDS011;14708;50.872;5.306;2024-03-23T01:10:33;1.60;;;1.50;;
27187;SDS011;14708;50.872;5.306;2024-03-23T01:12:59;2.65;;;1.85;;
27187;SDS011;14708;50.872;5.306;2024-03-23T01:15:25;1.90;;;1.63;;
27187;SDS011;14708;50.872;5.306;2024-03-23T01:17:51;2.75;;;1.90;;
27187;SDS011;14708;50.872;5.306;2024-03-23T01:20:16;6.85;;;1.67;;
27187;SDS011;14708;50.872;5.306;2024-03-23T01:22:42;2.35;;;1.60;;
27187;SDS011;14708;50.872;5.306;2024-03-23T01:25:08;2.28;;;1.88;;
27187;SDS011;14708;50.872;5.306;2024-03-23T01:27:33;2.53;;;2.20;;
27187;SDS011;14708;50.872;5.306;2024-03-23T01:29:59;1.98;;;1.52;;
27187;SDS011;14708;50.872;5.306;2024-03-23T01:32:25;2.25;;;1.70;;
27187;SDS011;14708;50.872;5.306;2024-03-23T01:34:51;2.50;;;2.00;;
27187;SDS011;14708;50.872;5.306;2024-03-23T01:37:17;2.47;;;1.73;;
27187;SDS011;14708;50.872;5.306;2024-03-23T01:39:44;3.00;;;1.65;;
27187;SDS011;14708;50.872;5.306;2024-03-23T01:42:10;2.42;;;1.70;;
27187;SDS011;14708;50.872;5.306;2024-03-23T01:44:36;3.53;;;1.98;;
27187;SDS011;14708;50.872;5.306;2024-03-23T01:47:02;2.75;;;1.88;;
27187;SDS011;14708;50.872;5.306;2024-03-23T01:49:28;2.95;;;1.83;;
27187;SDS011;14708;50.872;5.306;2024-03-23T01:51:54;5.20;;;1.73;;
27187;SDS011;14708;50.872;5.306;2024-03-23T01:54:20;2.20;;;1.52;;
27187;SDS011;14708;50.872;5.306;2024-03-23T01:56:48;2.15;;;1.67;;
27187;SDS011;14708;50.872;5.306;2024-03-23T01:59:14;2.30;;;1.65;;
27187;SDS011;14708;50.872;5.306;2024-03-23T02:01:40;3.08;;;2.10;;
27187;SDS011;14708;50.872;5.306;2024-03-23T02:04:06;3.40;;;1.90;;
27187;SDS011;14708;50.872;5.306;2024-03-23T02:06:32;2.63;;;1.88;;
27187;SDS011;14708;50.872;5.306;2024-03-23T02:08:58;2.85;;;1.63;;
27187;SDS011;14708;50.872;5.306;2024-03-23T02:11:25;2.10;;;1.52;;
27187;SDS011;14708;50.872;5.306;2024-03-23T02:13:51;1.85;;;1.30;;
27187;SDS011;14708;50.872;5.306;2024-03-23T02:16:16;3.67;;;2.13;;
27187;SDS011;14708;50.872;5.306;2024-03-23T02:18:42;3.30;;;1.52;;
27187;SDS011;14708;50.872;5.306;2024-03-23T02:21:08;3.28;;;2.03;;
27187;SDS011;14708;50.872;5.306;2024-03-23T02:23:34;3.67;;;2.00;;
27187;SDS011;14708;50.872;5.306;2024-03-23T02:25:59;2.63;;;1.77;;
27187;SDS011;14708;50.872;5.306;2024-03-23T02:28:25;1.55;;;1.45;;
27187;SDS011;14708;50.872;5.306;2024-03-23T02:30:51;2.80;;;1.80;;
27187;SDS011;14708;50.872;5.306;2024-03-23T02:33:17;2.33;;;1.90;;
27187;SDS011;14708;50.872;5.306;2024-03-23T02:35:44;1.30;;;1.20;;
27187;SDS011;14708;50.872;5.306;2024-03-23T02:38:10;1.58;;;1.33;;
27187;SDS011;14708;50.872;5.306;2024-03-23T02:40:37;2.80;;;1.75;;
27187;SDS011;14708;50.872;5.306;2024-03-23T02:43:03;2.05;;;1.58;;
27187;SDS011;14708;50.872;5.306;2024-03-23T02:45:29;1.67;;;1.50;;
27187;SDS011;14708;50.872;5.306;2024-03-23T02:47:56;2.92;;;1.73;;
27187;SDS011;14708;50.872;5.306;2024-03-23T02:50:22;1.70;;;1.50;;
27187;SDS011;14708;50.872;5.306;2024-03-23T02:52:48;2.70;;;1.70;;
27187;SDS011;14708;50.872;5.306;2024-03-23T02:55:14;3.88;;;1.65;;
27187;SDS011;14708;50.872;5.306;2024-03-23T02:57:40;2.80;;;1.67;;
27187;SDS011;14708;50.872;5.306;2024-03-23T03:00:06;2.13;;;1.75;;
27187;SDS011;14708;50.872;5.306;2024-03-23T03:02:34;2.17;;;1.40;;
27187;SDS011;14708;50.872;5.306;2024-03-23T03:04:59;2.47;;;1.77;;
27187;SDS011;14708;50.872;5.306;2024-03-23T03:07:25;2.15;;;1.65;;
27187;SDS011;14708;50.872;5.306;2024-03-23T03:09:51;1.83;;;1.65;;
27187;SDS011;14708;50.872;5.306;2024-03-23T03:12:16;2.10;;;1.40;;
27187;SDS011;14708;50.872;5.306;2024-03-23T03:14:42;2.20;;;1.67;;
27187;SDS011;14708;50.872;5.306;2024-03-23T03:17:08;1.63;;;1.40;;
27187;SDS011;14708;50.872;5.306;2024-03-23T03:19:34;2.60;;;1.50;;
27187;SDS011;14708;50.872;5.306;2024-03-23T03:21:59;3.05;;;1.90;;
27187;SDS011;14708;50.872;5.306;2024-03-23T03:24:25;2.15;;;1.67;;
27187;SDS011;14708;50.872;5.306;2024-03-23T03:26:51;2.75;;;1.65;;
27187;SDS011;14708;50.872;5.306;2024-03-23T03:29:18;2.47;;;1.88;;
27187;SDS011;14708;50.872;5.306;2024-03-23T03:31:43;2.28;;;1.73;;
27187;SDS011;14708;50.872;5.306;2024-03-23T03:34:11;2.30;;;1.70;;
27187;SDS011;14708;50.872;5.306;2024-03-23T03:36:38;2.03;;;1.60;;
27187;SDS011;14708;50.872;5.306;2024-03-23T03:39:04;2.15;;;1.40;;
27187;SDS011;14708;50.872;5.306;2024-03-23T03:41:30;2.65;;;1.40;;
27187;SDS011;14708;50.872;5.306;2024-03-23T03:43:57;2.15;;;1.58;;
27187;SDS011;14708;50.872;5.306;2024-03-23T03:46:27;1.52;;;1.40;;
27187;SDS011;14708;50.872;5.306;2024-03-23T03:48:56;3.10;;;1.58;;
27187;SDS011;14708;50.872;5.306;2024-03-23T03:51:21;2.28;;;1.95;;
27187;SDS011;14708;50.872;5.306;2024-03-23T03:53:47;2.38;;;1.80;;
27187;SDS011;14708;50.872;5.306;2024-03-23T03:56:13;2.30;;;2.03;;
27187;SDS011;14708;50.872;5.306;2024-03-23T03:58:39;3.53;;;1.70;;
27187;SDS011;14708;50.872;5.306;2024-03-23T04:01:07;1.85;;;1.52;;
27187;SDS011;14708;50.872;5.306;2024-03-23T04:03:33;3.05;;;1.50;;
27187;SDS011;14708;50.872;5.306;2024-03-23T04:05:58;1.80;;;1.70;;
27187;SDS011;14708;50.872;5.306;2024-03-23T04:08:25;2.28;;;1.77;;
27187;SDS011;14708;50.872;5.306;2024-03-23T04:13:21;2.20;;;1.75;;
27187;SDS011;14708;50.872;5.306;2024-03-23T04:15:55;2.55;;;1.88;;
27187;SDS011;14708;50.872;5.306;2024-03-23T04:18:22;1.70;;;1.40;;
27187;SDS011;14708;50.872;5.306;2024-03-23T04:20:49;1.70;;;1.40;;
27187;SDS011;14708;50.872;5.306;2024-03-23T04:23:17;1.50;;;1.20;;
27187;SDS011;14708;50.872;5.306;2024-03-23T04:25:44;2.15;;;1.23;;
27187;SDS011;14708;50.872;5.306;2024-03-23T04:28:12;1.83;;;1.13;;
27187;SDS011;14708;50.872;5.306;2024-03-23T04:30:39;2.53;;;1.63;;
27187;SDS011;14708;50.872;5.306;2024-03-23T04:33:05;1.45;;;1.30;;
27187;SDS011;14708;50.872;5.306;2024-03-23T04:35:30;1.77;;;1.58;;
27187;SDS011;14708;50.872;5.306;2024-03-23T04:37:56;2.08;;;1.00;;
27187;SDS011;14708;50.872;5.306;2024-03-23T04:40:26;2.28;;;1.48;;
27187;SDS011;14708;50.872;5.306;2024-03-23T04:42:52;3.38;;;1.58;;
27187;SDS011;14708;50.872;5.306;2024-03-23T04:45:22;2.35;;;1.45;;
27187;SDS011;14708;50.872;5.306;2024-03-23T04:47:47;2.10;;;1.38;;
27187;SDS011;14708;50.872;5.306;2024-03-23T04:50:15;4.28;;;1.45;;
27187;SDS011;14708;50.872;5.306;2024-03-23T04:52:40;1.80;;;1.15;;
27187;SDS011;14708;50.872;5.306;2024-03-23T04:55:12;1.95;;;1.50;;
27187;SDS011;14708;50.872;5.306;2024-03-23T04:57:39;1.92;;;1.63;;
27187;SDS011;14708;50.872;5.306;2024-03-23T05:00:05;1.50;;;1.10;;
27187;SDS011;14708;50.872;5.306;2024-03-23T05:02:41;3.58;;;1.60;;
27187;SDS011;14708;50.872;5.306;2024-03-23T05:05:08;3.28;;;1.42;;
27187;SDS011;14708;50.872;5.306;2024-03-23T05:07:34;1.45;;;1.17;;
27187;SDS011;14708;50.872;5.306;2024-03-23T05:10:00;2.35;;;1.63;;
27187;SDS011;14708;50.872;5.306;2024-03-23T05:12:26;2.15;;;1.42;;
27187;SDS011;14708;50.872;5.306;2024-03-23T05:14:52;1.20;;;1.10;;
27187;SDS011;14708;50.872;5.306;2024-03-23T05:17:19;1.55;;;1.08;;
27187;SDS011;14708;50.872;5.306;2024-03-23T05:19:46;1.23;;;1.13;;
27187;SDS011;14708;50.872;5.306;2024-03-23T05:22:16;1.98;;;1.55;;
27187;SDS011;14708;50.872;5.306;2024-03-23T05:24:44;2.05;;;1.20;;
27187;SDS011;14708;50.872;5.306;2024-03-23T05:27:10;3.50;;;1.40;;
27187;SDS011;14708;50.872;5.306;2024-03-23T05:29:36;1.55;;;1.45;;
27187;SDS011;14708;50.872;5.306;2024-03-23T05:32:05;2.05;;;1.33;;
27187;SDS011;14708;50.872;5.306;2024-03-23T05:34:32;3.20;;;1.55;;
27187;SDS011;14708;50.872;5.306;2024-03-23T05:36:57;2.20;;;1.50;;
27187;SDS011;14708;50.872;5.306;2024-03-23T05:39:23;2.33;;;1.45;;
27187;SDS011;14708;50.872;5.306;2024-03-23T05:41:49;2.25;;;1.60;;
27187;SDS011;14708;50.872;5.306;2024-03-23T05:44:15;3.55;;;1.77;;
27187;SDS011;14708;50.872;5.306;2024-03-23T05:46:41;1.55;;;1.30;;
27187;SDS011;14708;50.872;5.306;2024-03-23T05:49:13;1.75;;;1.17;;
27187;SDS011;14708;50.872;5.306;2024-03-23T05:51:40;2.97;;;1.40;;
27187;SDS011;14708;50.872;5.306;2024-03-23T05:54:06;2.47;;;1.17;;
27187;SDS011;14708;50.872;5.306;2024-03-23T05:56:32;1.55;;;1.20;;
27187;SDS011;14708;50.872;5.306;2024-03-23T05:58:58;1.63;;;1.48;;
27187;SDS011;14708;50.872;5.306;2024-03-23T06:01:23;2.08;;;1.55;;
27187;SDS011;14708;50.872;5.306;2024-03-23T06:03:49;1.83;;;1.38;;
27187;SDS011;14708;50.872;5.306;2024-03-23T06:06:16;2.20;;;1.10;;
27187;SDS011;14708;50.872;5.306;2024-03-23T06:08:43;1.75;;;1.35;;
27187;SDS011;14708;50.872;5.306;2024-03-23T06:11:16;2.70;;;1.45;;
27187;SDS011;14708;50.872;5.306;2024-03-23T06:13:42;1.30;;;1.10;;
27187;SDS011;14708;50.872;5.306;2024-03-23T06:16:08;2.00;;;1.10;;
27187;SDS011;14708;50.872;5.306;2024-03-23T06:18:36;2.03;;;1.10;;
27187;SDS011;14708;50.872;5.306;2024-03-23T06:21:04;1.30;;;1.00;;
27187;SDS011;14708;50.872;5.306;2024-03-23T06:23:29;1.38;;;0.88;;
27187;SDS011;14708;50.872;5.306;2024-03-23T06:25:55;1.67;;;1.33;;
27187;SDS011;14708;50.872;5.306;2024-03-23T06:28:21;1.52;;;1.23;;
27187;SDS011;14708;50.872;5.306;2024-03-23T06:30:47;2.50;;;1.35;;
27187;SDS011;14708;50.872;5.306;2024-03-23T06:33:12;1.40;;;1.17;;
27187;SDS011;14708;50.872;5.306;2024-03-23T06:35:39;1.05;;;0.90;;
27187;SDS011;14708;50.872;5.306;2024-03-23T06:38:05;1.52;;;1.33;;
27187;SDS011;14708;50.872;5.306;2024-03-23T06:40:31;1.00;;;0.90;;
27187;SDS011;14708;50.872;5.306;2024-03-23T06:42:56;1.73;;;1.13;;
27187;SDS011;14708;50.872;5.306;2024-03-23T06:45:24;1.27;;;1.17;;
27187;SDS011;14708;50.872;5.306;2024-03-23T06:47:50;2.15;;;1.25;;
27187;SDS011;14708;50.872;5.306;2024-03-23T06:50:17;1.50;;;1.15;;
27187;SDS011;14708;50.872;5.306;2024-03-23T06:52:43;1.23;;;0.90;;
27187;SDS011;14708;50.872;5.306;2024-03-23T06:55:09;1.67;;;1.30;;
27187;SDS011;14708;50.872;5.306;2024-03-23T06:57:35;1.38;;;1.00;;
27187;SDS011;14708;50.872;5.306;2024-03-23T07:00:01;1.20;;;1.10;;
27187;SDS011;14708;50.872;5.306;2024-03-23T07:02:27;1.45;;;1.30;;
27187;SDS011;14708;50.872;5.306;2024-03-23T07:04:53;2.05;;;1.20;;
27187;SDS011;14708;50.872;5.306;2024-03-23T07:07:19;2.28;;;1.40;;
27187;SDS011;14708;50.872;5.306;2024-03-23T07:09:46;1.35;;;1.13;;
27187;SDS011;14708;50.872;5.306;2024-03-23T07:12:15;2.03;;;1.25;;
27187;SDS011;14708;50.872;5.306;2024-03-23T07:14:41;1.55;;;1.42;;
27187;SDS011;14708;50.872;5.306;2024-03-23T07:17:07;1.83;;;1.40;;
27187;SDS011;14708;50.872;5.306;2024-03-23T07:19:32;2.05;;;1.10;;
27187;SDS011;14708;50.872;5.306;2024-03-23T07:22:00;2.40;;;1.48;;
27187;SDS011;14708;50.872;5.306;2024-03-23T07:24:28;1.30;;;1.00;;
27187;SDS011;14708;50.872;5.306;2024-03-23T07:26:58;1.73;;;1.40;;
27187;SDS011;14708;50.872;5.306;2024-03-23T07:29:24;1.35;;;1.00;;
27187;SDS011;14708;50.872;5.306;2024-03-23T07:31:50;1.65;;;1.30;;
27187;SDS011;14708;50.872;5.306;2024-03-23T07:34:15;5.57;;;1.83;;
27187;SDS011;14708;50.872;5.306;2024-03-23T07:36:41;3.85;;;1.90;;
27187;SDS011;14708;50.872;5.306;2024-03-23T07:39:07;2.65;;;1.10;;
27187;SDS011;14708;50.872;5.306;2024-03-23T07:41:33;3.70;;;1.88;;
27187;SDS011;14708;50.872;5.306;2024-03-23T07:43:58;1.17;;;1.00;;
27187;SDS011;14708;50.872;5.306;2024-03-23T07:46:24;1.63;;;1.33;;
27187;SDS011;14708;50.872;5.306;2024-03-23T07:48:50;1.73;;;0.80;;
27187;SDS011;14708;50.872;5.306;2024-03-23T07:51:21;3.65;;;1.23;;
27187;SDS011;14708;50.872;5.306;2024-03-23T07:53:47;2.22;;;1.27;;
27187;SDS011;14708;50.872;5.306;2024-03-23T07:56:14;1.60;;;1.38;;
27187;SDS011;14708;50.872;5.306;2024-03-23T07:58:41;2.45;;;1.13;;
27187;SDS011;14708;50.872;5.306;2024-03-23T08:01:10;2.05;;;1.20;;
27187;SDS011;14708;50.872;5.306;2024-03-23T08:03:37;2.30;;;0.98;;
27187;SDS011;14708;50.872;5.306;2024-03-23T08:06:18;2.03;;;1.08;;
27187;SDS011;14708;50.872;5.306;2024-03-23T08:08:46;3.42;;;1.15;;
27187;SDS011;14708;50.872;5.306;2024-03-23T08:11:12;1.52;;;1.02;;
27187;SDS011;14708;50.872;5.306;2024-03-23T08:13:40;2.70;;;1.00;;
27187;SDS011;14708;50.872;5.306;2024-03-23T08:16:06;3.47;;;1.42;;
27187;SDS011;14708;50.872;5.306;2024-03-23T08:18:36;5.13;;;1.48;;
27187;SDS011;14708;50.872;5.306;2024-03-23T08:21:04;3.63;;;1.38;;
27187;SDS011;14708;50.872;5.306;2024-03-23T08:23:32;2.63;;;1.48;;
27187;SDS011;14708;50.872;5.306;2024-03-23T08:26:00;6.63;;;1.23;;
27187;SDS011;14708;50.872;5.306;2024-03-23T08:28:27;4.15;;;1.73;;
27187;SDS011;14708;50.872;5.306;2024-03-23T08:30:53;5.25;;;1.05;;
27187;SDS011;14708;50.872;5.306;2024-03-23T08:33:19;1.92;;;1.17;;
27187;SDS011;14708;50.872;5.306;2024-03-23T08:35:55;4.28;;;1.15;;
27187;SDS011;14708;50.872;5.306;2024-03-23T08:38:26;4.50;;;1.05;;
27187;SDS011;14708;50.872;5.306;2024-03-23T08:40:58;2.63;;;1.48;;
27187;SDS011;14708;50.872;5.306;2024-03-23T08:43:25;2.95;;;1.63;;
27187;SDS011;14708;50.872;5.306;2024-03-23T08:45:51;3.53;;;1.80;;
27187;SDS011;14708;50.872;5.306;2024-03-23T08:48:18;6.47;;;1.65;;
27187;SDS011;14708;50.872;5.306;2024-03-23T08:50:46;5.82;;;1.58;;
27187;SDS011;14708;50.872;5.306;2024-03-23T08:53:12;3.60;;;1.35;;
27187;SDS011;14708;50.872;5.306;2024-03-23T08:55:38;4.50;;;1.38;;
27187;SDS011;14708;50.872;5.306;2024-03-23T08:58:04;2.42;;;1.23;;
27187;SDS011;14708;50.872;5.306;2024-03-23T09:00:33;3.08;;;1.42;;
27187;SDS011;14708;50.872;5.306;2024-03-23T09:03:00;6.03;;;1.73;;
27187;SDS011;14708;50.872;5.306;2024-03-23T09:05:27;3.70;;;1.58;;
27187;SDS011;14708;50.872;5.306;2024-03-23T09:07:53;4.30;;;1.85;;
27187;SDS011;14708;50.872;5.306;2024-03-23T09:10:20;4.72;;;1.60;;
27187;SDS011;14708;50.872;5.306;2024-03-23T09:12:47;3.55;;;1.67;;
27187;SDS011;14708;50.872;5.306;2024-03-23T09:15:13;3.90;;;1.30;;
27187;SDS011;14708;50.872;5.306;2024-03-23T09:17:40;2.92;;;1.50;;
27187;SDS011;14708;50.872;5.306;2024-03-23T09:20:06;3.55;;;1.30;;
27187;SDS011;14708;50.872;5.306;2024-03-23T09:22:32;2.13;;;1.23;;
27187;SDS011;14708;50.872;5.306;2024-03-23T09:24:58;3.08;;;1.73;;
27187;SDS011;14708;50.872;5.306;2024-03-23T09:27:24;4.72;;;1.23;;
27187;SDS011;14708;50.872;5.306;2024-03-23T09:29:49;1.10;;;0.90;;
27187;SDS011;14708;50.872;5.306;2024-03-23T09:32:15;3.88;;;1.30;;
27187;SDS011;14708;50.872;5.306;2024-03-23T09:34:40;2.45;;;1.30;;
27187;SDS011;14708;50.872;5.306;2024-03-23T09:37:07;2.47;;;1.27;;
27187;SDS011;14708;50.872;5.306;2024-03-23T09:39:33;2.47;;;1.20;;
27187;SDS011;14708;50.872;5.306;2024-03-23T09:41:59;8.20;;;1.77;;
27187;SDS011;14708;50.872;5.306;2024-03-23T09:44:25;3.83;;;1.35;;
27187;SDS011;14708;50.872;5.306;2024-03-23T09:46:56;4.25;;;1.58;;
27187;SDS011;14708;50.872;5.306;2024-03-23T09:49:24;2.72;;;1.38;;
27187;SDS011;14708;50.872;5.306;2024-03-23T09:51:50;2.38;;;1.13;;
27187;SDS011;14708;50.872;5.306;2024-03-23T09:54:16;5.55;;;1.60;;
27187;SDS011;14708;50.872;5.306;2024-03-23T09:56:41;4.50;;;1.30;;
27187;SDS011;14708;50.872;5.306;2024-03-23T09:59:08;3.97;;;1.30;;
27187;SDS011;14708;50.872;5.306;2024-03-23T10:01:34;4.60;;;1.13;;
27187;SDS011;14708;50.872;5.306;2024-03-23T10:04:01;4.43;;;1.35;;
27187;SDS011;14708;50.872;5.306;2024-03-23T10:06:27;3.15;;;1.15;;
27187;SDS011;14708;50.872;5.306;2024-03-23T10:08:54;2.22;;;1.35;;
27187;SDS011;14708;50.872;5.306;2024-03-23T10:11:20;2.22;;;0.90;;
27187;SDS011;14708;50.872;5.306;2024-03-23T10:13:46;4.13;;;1.40;;
27187;SDS011;14708;50.872;5.306;2024-03-23T10:16:12;2.45;;;1.25;;
27187;SDS011;14708;50.872;5.306;2024-03-23T10:18:47;4.15;;;1.35;;
27187;SDS011;14708;50.872;5.306;2024-03-23T10:21:14;3.13;;;1.38;;
27187;SDS011;14708;50.872;5.306;2024-03-23T10:23:42;9.93;;;1.67;;
27187;SDS011;14708;50.872;5.306;2024-03-23T10:28:57;9.02;;;1.90;;
27187;SDS011;14708;50.872;5.306;2024-03-23T10:31:30;4.60;;;1.73;;
27187;SDS011;14708;50.872;5.306;2024-03-23T10:33:56;5.80;;;1.88;;
27187;SDS011;14708;50.872;5.306;2024-03-23T10:36:23;14.80;;;3.35;;
27187;SDS011;14708;50.872;5.306;2024-03-23T10:38:53;21.73;;;5.38;;
27187;SDS011;14708;50.872;5.306;2024-03-23T10:41:19;33.17;;;9.90;;
27187;SDS011;14708;50.872;5.306;2024-03-23T10:43:46;32.03;;;8.32;;
27187;SDS011;14708;50.872;5.306;2024-03-23T10:46:13;59.13;;;13.10;;
27187;SDS011;14708;50.872;5.306;2024-03-23T10:48:40;43.40;;;11.25;;
27187;SDS011;14708;50.872;5.306;2024-03-23T10:51:08;49.03;;;11.45;;
27187;SDS011;14708;50.872;5.306;2024-03-23T10:53:36;37.25;;;9.43;;
27187;SDS011;14708;50.872;5.306;2024-03-23T10:56:04;38.70;;;9.48;;
27187;SDS011;14708;50.872;5.306;2024-03-23T10:58:39;32.33;;;8.15;;
27187;SDS011;14708;50.872;5.306;2024-03-23T11:01:12;29.30;;;8.93;;
27187;SDS011;14708;50.872;5.306;2024-03-23T11:03:44;29.17;;;7.93;;
27187;SDS011;14708;50.872;5.306;2024-03-23T11:06:11;35.50;;;9.65;;
27187;SDS011;14708;50.872;5.306;2024-03-23T11:11:26;29.90;;;8.10;;
27187;SDS011;14708;50.872;5.306;2024-03-23T11:13:56;26.95;;;7.03;;
27187;SDS011;14708;50.872;5.306;2024-03-23T11:16:26;28.38;;;7.55;;
27187;SDS011;14708;50.872;5.306;2024-03-23T11:22:04;31.52;;;8.07;;
27187;SDS011;14708;50.872;5.306;2024-03-23T11:24:30;32.38;;;8.77;;
27187;SDS011;14708;50.872;5.306;2024-03-23T11:26:56;24.23;;;8.50;;
27187;SDS011;14708;50.872;5.306;2024-03-23T11:29:26;21.25;;;8.00;;
27187;SDS011;14708;50.872;5.306;2024-03-23T11:31:53;30.58;;;8.25;;
27187;SDS011;14708;50.872;5.306;2024-03-23T11:34:19;23.50;;;6.32;;
27187;SDS011;14708;50.872;5.306;2024-03-23T11:36:46;21.92;;;6.97;;
27187;SDS011;14708;50.872;5.306;2024-03-23T11:41:52;19.48;;;5.30;;
27187;SDS011;14708;50.872;5.306;2024-03-23T11:44:19;18.35;;;5.88;;
27187;SDS011;14708;50.872;5.306;2024-03-23T11:46:50;21.10;;;5.75;;
27187;SDS011;14708;50.872;5.306;2024-03-23T11:49:27;13.55;;;4.18;;
27187;SDS011;14708;50.872;5.306;2024-03-23T11:51:54;12.18;;;5.18;;
27187;SDS011;14708;50.872;5.306;2024-03-23T11:54:22;16.58;;;5.78;;
27187;SDS011;14708;50.872;5.306;2024-03-23T11:56:58;15.52;;;6.38;;
27187;SDS011;14708;50.872;5.306;2024-03-23T11:59:38;19.08;;;5.72;;
27187;SDS011;14708;50.872;5.306;2024-03-23T12:02:08;9.52;;;3.83;;
27187;SDS011;14708;50.872;5.306;2024-03-23T12:04:39;13.73;;;3.80;;
27187;SDS011;14708;50.872;5.306;2024-03-23T12:09:34;25.13;;;5.75;;
27187;SDS011;14708;50.872;5.306;2024-03-23T12:12:14;26.35;;;5.60;;
27187;SDS011;14708;50.872;5.306;2024-03-23T12:17:13;28.30;;;7.47;;
27187;SDS011;14708;50.872;5.306;2024-03-23T12:19:42;25.27;;;6.88;;
27187;SDS011;14708;50.872;5.306;2024-03-23T12:22:09;23.02;;;7.55;;
27187;SDS011;14708;50.872;5.306;2024-03-23T12:24:36;28.20;;;7.80;;
27187;SDS011;14708;50.872;5.306;2024-03-23T12:27:05;21.85;;;5.70;;
27187;SDS011;14708;50.872;5.306;2024-03-23T12:29:31;23.15;;;6.07;;
27187;SDS011;14708;50.872;5.306;2024-03-23T12:32:00;21.08;;;6.85;;
27187;SDS011;14708;50.872;5.306;2024-03-23T12:34:28;15.25;;;5.05;;
27187;SDS011;14708;50.872;5.306;2024-03-23T12:36:58;22.75;;;6.93;;
27187;SDS011;14708;50.872;5.306;2024-03-23T12:39:24;21.85;;;7.22;;
27187;SDS011;14708;50.872;5.306;2024-03-23T12:41:49;23.38;;;5.82;;
27187;SDS011;14708;50.872;5.306;2024-03-23T12:44:17;20.35;;;6.15;;
27187;SDS011;14708;50.872;5.306;2024-03-23T12:46:43;19.63;;;6.00;;
27187;SDS011;14708;50.872;5.306;2024-03-23T12:49:09;23.42;;;6.45;;
27187;SDS011;14708;50.872;5.306;2024-03-23T12:51:36;18.98;;;4.50;;
27187;SDS011;14708;50.872;5.306;2024-03-23T12:54:03;19.02;;;5.60;;
27187;SDS011;14708;50.872;5.306;2024-03-23T12:56:29;20.52;;;5.45;;
27187;SDS011;14708;50.872;5.306;2024-03-23T12:58:58;15.00;;;5.03;;
27187;SDS011;14708;50.872;5.306;2024-03-23T13:01:24;20.13;;;6.28;;
27187;SDS011;14708;50.872;5.306;2024-03-23T13:03:50;18.92;;;6.25;;
27187;SDS011;14708;50.872;5.306;2024-03-23T13:06:17;24.00;;;7.57;;
27187;SDS011;14708;50.872;5.306;2024-03-23T13:08:47;21.27;;;6.55;;
27187;SDS011;14708;50.872;5.306;2024-03-23T13:11:14;18.77;;;5.30;;
27187;SDS011;14708;50.872;5.306;2024-03-23T13:13:40;18.02;;;5.47;;
27187;SDS011;14708;50.872;5.306;2024-03-23T13:16:07;14.98;;;4.95;;
27187;SDS011;14708;50.872;5.306;2024-03-23T13:18:33;18.73;;;7.30;;
27187;SDS011;14708;50.872;5.306;2024-03-23T13:21:00;22.67;;;5.53;;
27187;SDS011;14708;50.872;5.306;2024-03-23T13:23:29;20.45;;;6.30;;
27187;SDS011;14708;50.872;5.306;2024-03-23T13:25:56;18.42;;;6.35;;
27187;SDS011;14708;50.872;5.306;2024-03-23T13:28:22;20.50;;;5.70;;
27187;SDS011;14708;50.872;5.306;2024-03-23T13:30:52;17.33;;;5.15;;
27187;SDS011;14708;50.872;5.306;2024-03-23T13:33:19;17.67;;;6.20;;
27187;SDS011;14708;50.872;5.306;2024-03-23T13:35:55;16.70;;;5.22;;
27187;SDS011;14708;50.872;5.306;2024-03-23T13:38:22;16.48;;;5.88;;
27187;SDS011;14708;50.872;5.306;2024-03-23T13:40:52;17.92;;;5.43;;
27187;SDS011;14708;50.872;5.306;2024-03-23T13:43:19;14.77;;;5.47;;
27187;SDS011;14708;50.872;5.306;2024-03-23T13:45:48;13.02;;;4.68;;
27187;SDS011;14708;50.872;5.306;2024-03-23T13:48:17;15.98;;;5.22;;
27187;SDS011;14708;50.872;5.306;2024-03-23T13:50:47;15.93;;;4.15;;
27187;SDS011;14708;50.872;5.306;2024-03-23T13:53:25;15.50;;;4.80;;
27187;SDS011;14708;50.872;5.306;2024-03-23T13:55:51;17.02;;;5.03;;
27187;SDS011;14708;50.872;5.306;2024-03-23T13:58:18;14.70;;;4.60;;
27187;SDS011;14708;50.872;5.306;2024-03-23T14:00:44;18.88;;;5.63;;
27187;SDS011;14708;50.872;5.306;2024-03-23T14:03:10;18.80;;;5.53;;
27187;SDS011;14708;50.872;5.306;2024-03-23T14:05:37;15.30;;;5.70;;
27187;SDS011;14708;50.872;5.306;2024-03-23T14:08:07;16.30;;;5.30;;
27187;SDS011;14708;50.872;5.306;2024-03-23T14:10:33;10.63;;;3.88;;
27187;SDS011;14708;50.872;5.306;2024-03-23T14:13:00;11.95;;;4.80;;
27187;SDS011;14708;50.872;5.306;2024-03-23T14:15:26;12.20;;;4.63;;
27187;SDS011;14708;50.872;5.306;2024-03-23T14:17:52;15.18;;;5.15;;
27187;SDS011;14708;50.872;5.306;2024-03-23T14:20:20;11.52;;;3.72;;
27187;SDS011;14708;50.872;5.306;2024-03-23T14:22:46;17.98;;;5.63;;
27187;SDS011;14708;50.872;5.306;2024-03-23T14:25:16;16.83;;;5.72;;
27187;SDS011;14708;50.872;5.306;2024-03-23T14:27:45;17.33;;;4.95;;
27187;SDS011;14708;50.872;5.306;2024-03-23T14:32:38;11.98;;;4.82;;
27187;SDS011;14708;50.872;5.306;2024-03-23T14:35:05;11.88;;;4.43;;
27187;SDS011;14708;50.872;5.306;2024-03-23T14:37:38;14.95;;;4.80;;
27187;SDS011;14708;50.872;5.306;2024-03-23T14:40:07;12.07;;;4.50;;
27187;SDS011;14708;50.872;5.306;2024-03-23T14:42:33;14.55;;;4.90;;
27187;SDS011;14708;50.872;5.306;2024-03-23T14:44:59;11.98;;;5.38;;
27187;SDS011;14708;50.872;5.306;2024-03-23T14:47:25;12.85;;;4.57;;
27187;SDS011;14708;50.872;5.306;2024-03-23T14:49:55;9.75;;;4.03;;
27187;SDS011;14708;50.872;5.306;2024-03-23T14:52:23;13.00;;;4.40;;
27187;SDS011;14708;50.872;5.306;2024-03-23T14:54:49;12.60;;;4.60;;
27187;SDS011;14708;50.872;5.306;2024-03-23T14:57:15;10.93;;;4.60;;
27187;SDS011;14708;50.872;5.306;2024-03-23T14:59:41;9.77;;;3.67;;
27187;SDS011;14708;50.872;5.306;2024-03-23T15:02:07;16.40;;;4.13;;
27187;SDS011;14708;50.872;5.306;2024-03-23T15:04:33;11.63;;;4.97;;
27187;SDS011;14708;50.872;5.306;2024-03-23T15:07:00;9.55;;;4.22;;
27187;SDS011;14708;50.872;5.306;2024-03-23T15:09:26;15.75;;;5.20;;
27187;SDS011;14708;50.872;5.306;2024-03-23T15:11:52;13.07;;;4.55;;
27187;SDS011;14708;50.872;5.306;2024-03-23T15:14:20;16.35;;;5.07;;
27187;SDS011;14708;50.872;5.306;2024-03-23T15:16:46;11.43;;;4.15;;
27187;SDS011;14708;50.872;5.306;2024-03-23T15:21:42;10.60;;;3.85;;
27187;SDS011;14708;50.872;5.306;2024-03-23T15:24:11;14.85;;;4.50;;
27187;SDS011;14708;50.872;5.306;2024-03-23T15:26:37;12.25;;;4.38;;
27187;SDS011;14708;50.872;5.306;2024-03-23T15:29:03;11.77;;;4.75;;
27187;SDS011;14708;50.872;5.306;2024-03-23T15:31:36;10.20;;;4.30;;
27187;SDS011;14708;50.872;5.306;2024-03-23T15:34:03;9.40;;;3.95;;
27187;SDS011;14708;50.872;5.306;2024-03-23T15:36:34;10.07;;;3.50;;
27187;SDS011;14708;50.872;5.306;2024-03-23T15:39:03;9.33;;;4.20;;
27187;SDS011;14708;50.872;5.306;2024-03-23T15:41:29;11.13;;;4.30;;
27187;SDS011;14708;50.872;5.306;2024-03-23T15:43:56;8.73;;;3.60;;
27187;SDS011;14708;50.872;5.306;2024-03-23T15:46:21;16.25;;;5.47;;
27187;SDS011;14708;50.872;5.306;2024-03-23T15:48:48;12.18;;;3.30;;
27187;SDS011;14708;50.872;5.306;2024-03-23T15:51:17;10.02;;;3.58;;
27187;SDS011;14708;50.872;5.306;2024-03-23T15:53:43;10.57;;;3.70;;
27187;SDS011;14708;50.872;5.306;2024-03-23T15:56:09;10.70;;;3.28;;
27187;SDS011;14708;50.872;5.306;2024-03-23T15:58:35;8.90;;;3.25;;
27187;SDS011;14708;50.872;5.306;2024-03-23T16:01:01;9.25;;;3.38;;